createdAt,value
2018-06-15T00:01:40.349Z,20.87
2018-06-15T00:04:11.563Z,24.07
2018-06-15T00:06:47.142Z,24.93
2018-06-15T00:09:23.237Z,19.37
2018-06-15T00:11:56.408Z,20.47
2018-06-15T00:17:04.923Z,15.80
2018-06-15T00:19:35.601Z,19.13
2018-06-15T00:22:09.179Z,19.53
2018-06-15T00:24:43.513Z,12.90
2018-06-15T00:27:16.057Z,16.53
2018-06-15T00:29:47.802Z,16.73
2018-06-15T00:32:23.363Z,21.33
2018-06-15T00:35:00.173Z,20.00
2018-06-15T00:37:32.750Z,19.33
2018-06-15T00:40:06.976Z,16.43
2018-06-15T00:42:39.761Z,24.37
2018-06-15T00:45:15.085Z,24.63
2018-06-15T00:47:48.059Z,19.70
2018-06-15T00:50:22.971Z,22.97
2018-06-15T00:52:53.585Z,25.53
2018-06-15T00:55:28.015Z,21.10
2018-06-15T00:58:04.406Z,25.07
2018-06-15T01:00:36.798Z,23.97
2018-06-15T01:03:08.128Z,26.10
2018-06-15T01:05:36.950Z,27.37
2018-06-15T01:08:05.957Z,31.60
2018-06-15T01:10:34.890Z,20.07
2018-06-15T01:13:05.348Z,22.73
2018-06-15T01:15:40.723Z,21.57
2018-06-15T01:18:15.551Z,21.20
2018-06-15T01:20:47.877Z,26.03
2018-06-15T01:23:21.068Z,27.97
2018-06-15T01:25:52.199Z,22.07
2018-06-15T01:28:40.184Z,23.10
2018-06-15T01:31:13.264Z,28.73
2018-06-15T01:33:46.229Z,23.93
2018-06-15T01:36:16.573Z,21.00
2018-06-15T01:38:51.942Z,15.17
2018-06-15T01:41:24.560Z,18.73
2018-06-15T01:43:55.850Z,18.00
2018-06-15T01:46:29.264Z,19.20
2018-06-15T01:49:01.060Z,20.30
2018-06-15T01:51:32.485Z,24.67
2018-06-15T01:54:04.268Z,26.73
2018-06-15T01:56:36.976Z,33.73
2018-06-15T01:59:07.462Z,21.00
2018-06-15T02:01:37.742Z,24.90
2018-06-15T02:04:15.340Z,21.33
2018-06-15T02:06:46.892Z,17.90
2018-06-15T02:09:20.258Z,20.40
2018-06-15T02:11:52.348Z,24.60
2018-06-15T02:14:24.204Z,14.73
2018-06-15T02:16:53.058Z,24.00
2018-06-15T02:19:21.842Z,24.70
2018-06-15T02:21:50.754Z,19.67
2018-06-15T02:24:20.692Z,25.17
2018-06-15T02:26:52.039Z,26.77
2018-06-15T02:29:27.085Z,21.90
2018-06-15T02:31:57.093Z,25.37
2018-06-15T02:34:27.523Z,24.03
2018-06-15T02:37:03.502Z,22.33
2018-06-15T02:39:39.027Z,28.67
2018-06-15T02:42:12.124Z,23.03
2018-06-15T02:44:41.005Z,21.83
2018-06-15T02:47:09.815Z,31.70
2018-06-15T02:49:38.729Z,22.70
2018-06-15T02:52:08.088Z,23.03
2018-06-15T02:54:40.127Z,21.80
2018-06-15T02:57:16.732Z,30.00
2018-06-15T02:59:49.668Z,28.47
2018-06-15T03:02:24.232Z,28.33
2018-06-15T03:04:56.976Z,31.80
2018-06-15T03:10:03.098Z,25.80
2018-06-15T03:12:31.882Z,29.50
2018-06-15T03:15:00.819Z,21.40
2018-06-15T03:17:32.225Z,29.03
2018-06-15T03:20:04.400Z,29.97
2018-06-15T03:22:36.426Z,30.20
2018-06-15T03:25:08.659Z,26.43
2018-06-15T03:27:37.675Z,25.93
2018-06-15T03:30:06.675Z,23.00
2018-06-15T03:32:35.497Z,25.70
2018-06-15T03:35:04.892Z,23.23
2018-06-15T03:37:36.087Z,33.77
2018-06-15T03:40:07.503Z,25.60
2018-06-15T03:42:40.474Z,32.17
2018-06-15T03:45:09.396Z,20.57
2018-06-15T03:47:38.330Z,26.93
2018-06-15T03:50:07.146Z,20.47
2018-06-15T03:52:36.279Z,21.23
2018-06-15T03:55:09.164Z,20.37
2018-06-15T03:57:39.388Z,14.23
2018-06-15T04:00:10.190Z,26.03
2018-06-15T04:02:40.871Z,16.23
2018-06-15T04:05:09.726Z,26.73
2018-06-15T04:07:38.697Z,21.63
2018-06-15T04:10:07.598Z,19.93
2018-06-15T04:12:40.291Z,18.77
2018-06-15T04:15:11.691Z,25.47
2018-06-15T04:17:43.111Z,24.07
2018-06-15T04:20:15.254Z,20.70
2018-06-15T04:22:44.162Z,20.70
2018-06-15T04:25:13.005Z,16.00
2018-06-15T04:27:41.918Z,18.87
2018-06-15T04:30:13.039Z,21.70
2018-06-15T04:32:43.410Z,23.53
2018-06-15T04:35:13.529Z,22.10
2018-06-15T04:37:47.343Z,18.10
2018-06-15T04:40:16.098Z,18.97
2018-06-15T04:42:45.154Z,24.20
2018-06-15T04:45:14.192Z,19.17
2018-06-15T04:47:44.971Z,18.27
2018-06-15T04:50:16.061Z,19.57
2018-06-15T04:52:47.379Z,16.90
2018-06-15T04:55:19.677Z,18.60
2018-06-15T04:57:48.554Z,17.10
2018-06-15T05:00:17.358Z,19.53
2018-06-15T05:02:46.351Z,23.23
2018-06-15T05:05:16.643Z,24.97
2018-06-15T05:07:47.524Z,15.50
2018-06-15T05:10:20.563Z,14.73
2018-06-15T05:12:52.600Z,19.47
2018-06-15T05:15:21.453Z,22.30
2018-06-15T05:17:50.344Z,23.50
2018-06-15T05:20:19.468Z,24.67
2018-06-15T05:22:51.851Z,25.47
2018-06-15T05:25:25.877Z,24.77
2018-06-15T05:27:57.143Z,20.70
2018-06-15T05:30:27.419Z,19.50
2018-06-15T05:33:00.381Z,21.23
2018-06-15T05:35:32.062Z,24.60
2018-06-15T05:38:00.990Z,21.50
2018-06-15T05:40:29.869Z,19.17
2018-06-15T05:42:58.710Z,17.00
2018-06-15T05:45:29.170Z,22.03
2018-06-15T05:47:59.469Z,21.23
2018-06-15T05:50:31.481Z,21.80
2018-06-15T05:53:01.660Z,21.80
2018-06-15T05:55:32.919Z,25.27
2018-06-15T05:58:05.264Z,17.23
2018-06-15T06:00:34.066Z,23.43
2018-06-15T06:03:02.906Z,19.77
2018-06-15T06:05:31.873Z,17.33
2018-06-15T06:08:03.644Z,20.30
2018-06-15T06:10:35.971Z,26.03
2018-06-15T06:13:12.623Z,26.10
2018-06-15T06:21:20.360Z,18.60
2018-06-15T06:23:49.382Z,19.00
2018-06-15T06:26:18.374Z,18.90
2018-06-15T06:28:47.311Z,21.83
2018-06-15T06:31:17.088Z,19.83
2018-06-15T06:33:52.277Z,19.30
2018-06-15T06:39:17.172Z,22.97
2018-06-15T06:41:48.479Z,23.57
2018-06-15T06:44:22.951Z,21.00
2018-06-15T06:47:00.487Z,24.87
2018-06-15T06:52:15.407Z,12.53
2018-06-15T06:54:51.281Z,16.43
2018-06-15T06:57:27.954Z,15.47
2018-06-15T07:00:05.211Z,13.27
2018-06-15T07:02:39.310Z,13.00
2018-06-15T07:24:02.536Z,17.10
2018-06-15T07:26:52.226Z,17.67
2018-06-15T07:42:01.351Z,13.27
2018-06-15T07:44:44.539Z,15.57
2018-06-15T08:05:47.665Z,11.97
2018-06-15T08:08:20.515Z,10.33
2018-06-15T08:11:01.387Z,19.37
2018-06-15T08:13:32.755Z,17.03
2018-06-15T08:49:56.773Z,15.53
2018-06-15T11:08:12.380Z,7.27
2018-06-15T11:10:41.465Z,5.10
2018-06-15T11:13:10.622Z,5.10
2018-06-15T13:12:32.554Z,7.67
2018-06-15T13:15:02.835Z,5.73
2018-06-15T13:17:33.508Z,10.10
2018-06-15T13:53:44.194Z,8.93
2018-06-15T13:56:24.568Z,3.47
2018-06-15T14:20:33.652Z,4.20
2018-06-15T14:23:04.144Z,8.30
2018-06-15T14:25:34.053Z,5.93
2018-06-15T14:52:30.492Z,4.50
2018-06-15T14:55:02.215Z,7.73
2018-06-15T14:57:34.216Z,4.67
2018-06-15T15:18:23.030Z,7.23
2018-06-15T15:20:55.585Z,9.17
2018-06-15T15:23:26.090Z,6.73
2018-06-15T15:56:14.250Z,5.37
2018-06-15T15:58:43.286Z,4.20
2018-06-15T16:01:12.471Z,5.03
2018-06-15T16:03:44.639Z,5.30
2018-06-15T16:06:16.829Z,8.60
2018-06-15T16:08:48.301Z,7.60
2018-06-15T16:11:23.586Z,6.60
2018-06-15T16:13:54.248Z,5.87
2018-06-15T16:16:23.834Z,6.27
2018-06-15T16:18:55.420Z,3.10
2018-06-15T16:21:24.467Z,3.80
2018-06-15T16:24:04.004Z,8.63
2018-06-15T16:34:53.220Z,5.07
2018-06-15T16:37:22.237Z,4.27
2018-06-15T16:39:52.148Z,7.23
2018-06-15T16:42:21.349Z,5.77
2018-06-15T16:44:50.373Z,3.87
2018-06-15T16:47:21.685Z,7.97
2018-06-15T16:50:03.975Z,5.73
2018-06-15T16:58:11.242Z,9.83
2018-06-15T17:00:40.245Z,4.87
2018-06-15T17:03:09.343Z,6.17
2018-06-15T17:05:45.935Z,7.47
2018-06-15T17:25:47.471Z,5.90
2018-06-15T17:28:16.594Z,6.53
2018-06-15T17:30:46.075Z,5.10
2018-06-15T17:42:26.610Z,8.77
2018-06-15T17:44:55.678Z,3.03
2018-06-15T17:47:24.790Z,5.47
2018-06-15T17:49:57.722Z,4.67
2018-06-15T18:13:55.520Z,9.50
2018-06-15T18:16:24.702Z,7.43
2018-06-15T18:18:53.755Z,12.63
2018-06-15T18:45:46.380Z,5.27
2018-06-15T18:48:15.978Z,7.40
2018-06-15T18:50:45.257Z,5.33
2018-06-15T19:11:32.739Z,8.53
2018-06-15T19:14:01.789Z,8.63
2018-06-15T19:16:32.320Z,3.60
2018-06-15T19:34:15.355Z,8.10
2018-06-15T19:36:44.454Z,6.23
2018-06-15T19:39:13.565Z,6.23
2018-06-15T20:03:03.252Z,6.23
2018-06-15T20:05:33.339Z,6.97
2018-06-15T20:08:02.621Z,8.67
2018-06-15T20:28:57.094Z,10.80
2018-06-15T20:31:26.326Z,6.20
2018-06-15T20:34:12.606Z,12.70
2018-06-15T20:51:55.729Z,7.00
2018-06-15T20:54:24.835Z,9.40
2018-06-15T20:56:54.032Z,3.60
2018-06-15T21:14:36.867Z,3.90
2018-06-15T21:17:05.907Z,9.30
2018-06-15T21:19:35.068Z,9.67
2018-06-15T21:34:15.191Z,7.77
2018-06-15T21:36:44.390Z,5.33
2018-06-15T21:39:13.382Z,9.83
2018-06-15T21:56:54.130Z,10.43
2018-06-15T21:59:23.087Z,13.67
2018-06-15T22:01:52.329Z,8.00
2018-06-15T22:22:39.585Z,7.73
2018-06-15T22:25:08.668Z,10.63
2018-06-15T22:27:37.766Z,6.77
2018-06-15T22:42:18.590Z,7.63
2018-06-15T22:44:47.497Z,6.93
2018-06-15T22:47:16.508Z,8.00
2018-06-15T22:49:47.153Z,6.33
2018-06-15T23:13:37.296Z,6.50
2018-06-15T23:16:06.311Z,10.10
2018-06-15T23:18:35.420Z,9.57
2018-06-15T23:33:28.847Z,9.30
2018-06-15T23:35:57.879Z,6.77
2018-06-15T23:38:26.773Z,5.53
2018-06-15T23:55:41.703Z,7.63
2018-06-15T23:58:10.786Z,12.93
